OICS  Sanandaj Airport

Add Bookmark

Iran

Status IATA
Operational SDG
Latitude Longitude
35° 14' 45" N 47° 0' 33" E
35.245899 47.009201
Local (DST + 5) UTC (GMT + 4)
Mar 1, 2015 03:56 Mar 1, 2015 12:26
Sunrise-Sunset Local UTC
Begin Civil Twilight 06:24 02:54
Sunrise 06:50 03:20
Sunset 06:18 14:48
End Civil Twilight 06:43 15:13

Current Weather

METAR Observed VFR
OICS 011200Z 25010KT 9999 FEW045TCU SCT045 15/M04 Q1012 Sun, Mar 1, 2015 @ 12:00 UTC
(26 Minutes ago)
Visual Flight Rules
Wind Visibility Clouds Conditions
250° at 10 knots (19 kph) 10 km or more
  • Few at 4,500' AGL
  • Scattered at 4,500' AGL
  • No significant weather
Temperatures Readings Precipitation
Current Temp 15°C (59°F)
Dewpoint -4°C (25°F)
Humidity 27%
Altimeter 29.88"Hg
Sea Level Pressure 1012mb
Field Elevation 4504.59'
None Recorded

Additional weather within a 185.2km radius of OICS

Map ICAO Location
OICC 100.9km S (172°)
OIHH 146.5km E (106°)
ORSU 157.2km W (283°)

24 Hour Weather History

Loading
-

24 Hour Weather Graphs

Loading
-

CheckWX.com is intended as a tool to help pilots better visualize weather data. It is not intended as a substitute for an official weather briefing obtained from a Flight Service Station. CheckWX.com does not meet the FAA requirements for an official pre-flight weather briefing. Therefore, it's important that pilots still call and obtain an official FSS pre-flight weather briefing.